createdAt,value
2022-11-20T00:01:29.317Z,10.70
2022-11-20T00:03:31.418Z,8.63
2022-11-20T00:05:34.648Z,8.13
2022-11-20T00:07:36.723Z,8.37
2022-11-20T00:09:39.030Z,7.67
2022-11-20T00:11:41.166Z,8.33
2022-11-20T00:13:44.493Z,6.50
2022-11-20T00:15:49.647Z,7.60
2022-11-20T00:17:51.893Z,6.03
2022-11-20T00:19:53.899Z,6.30
2022-11-20T00:21:56.705Z,6.37
2022-11-20T00:23:59.208Z,5.30
2022-11-20T00:26:05.709Z,6.13
2022-11-20T00:28:07.870Z,5.83
2022-11-20T00:30:14.678Z,6.67
2022-11-20T00:32:17.252Z,7.67
2022-11-20T00:34:19.477Z,8.20
2022-11-20T00:36:27.291Z,8.83
2022-11-20T00:38:29.562Z,8.57
2022-11-20T00:40:31.891Z,7.93
2022-11-20T00:42:35.175Z,7.07
2022-11-20T00:44:37.290Z,6.37
2022-11-20T00:46:39.629Z,7.00
2022-11-20T00:48:41.772Z,6.23
2022-11-20T00:50:44.039Z,6.63
2022-11-20T00:52:46.147Z,6.73
2022-11-20T00:54:48.379Z,6.87
2022-11-20T00:56:50.442Z,5.50
2022-11-20T00:58:52.586Z,6.10
2022-11-20T01:00:54.683Z,6.03
2022-11-20T01:02:57.133Z,5.67
2022-11-20T01:04:59.429Z,6.43
2022-11-20T01:07:05.127Z,7.67
2022-11-20T01:09:11.460Z,8.00
2022-11-20T01:11:16.795Z,9.20
2022-11-20T01:13:38.460Z,7.70
2022-11-20T01:15:40.556Z,8.20
2022-11-20T01:17:42.471Z,8.67
2022-11-20T01:19:45.302Z,7.43
2022-11-20T01:21:51.075Z,7.10
2022-11-20T01:23:53.453Z,6.90
2022-11-20T01:25:55.610Z,7.33
2022-11-20T01:27:57.752Z,5.87
2022-11-20T01:30:01.396Z,6.67
2022-11-20T01:32:03.698Z,3.40
2022-11-20T01:34:08.540Z,3.00
2022-11-20T01:36:11.956Z,2.93
2022-11-20T01:38:14.063Z,2.07
2022-11-20T01:40:16.227Z,1.13
2022-11-20T01:42:36.710Z,1.10
2022-11-20T01:44:59.953Z,1.40
2022-11-20T01:47:07.835Z,1.47
2022-11-20T01:49:22.895Z,1.23
2022-11-20T01:51:34.724Z,1.00
2022-11-20T01:53:38.686Z,1.47
2022-11-20T01:55:45.350Z,1.77
2022-11-20T01:57:49.288Z,1.43
2022-11-20T02:00:00.678Z,1.23
2022-11-20T02:02:05.905Z,1.07
2022-11-20T02:04:09.883Z,0.70
2022-11-20T02:06:20.515Z,0.70
2022-11-20T02:08:24.312Z,0.60
2022-11-20T02:10:29.404Z,0.50
2022-11-20T02:12:50.084Z,0.60
2022-11-20T02:14:52.323Z,0.60
2022-11-20T02:16:56.289Z,1.87
2022-11-20T02:19:01.738Z,0.93
2022-11-20T02:21:14.271Z,1.20
2022-11-20T02:23:40.927Z,1.43
2022-11-20T02:25:44.801Z,1.50
2022-11-20T02:27:47.198Z,1.33
2022-11-20T02:29:56.785Z,1.53
2022-11-20T02:32:02.421Z,1.40
2022-11-20T02:34:04.847Z,1.47
2022-11-20T02:36:10.267Z,1.30
2022-11-20T02:38:13.638Z,2.23
2022-11-20T02:40:18.882Z,1.40
2022-11-20T02:42:23.847Z,1.73
2022-11-20T02:44:26.388Z,1.90
2022-11-20T02:46:28.597Z,1.67
2022-11-20T02:48:33.816Z,1.73
2022-11-20T02:50:40.053Z,1.67
2022-11-20T02:52:42.224Z,2.43
2022-11-20T02:54:44.249Z,2.50
2022-11-20T02:56:46.216Z,1.77
2022-11-20T02:58:48.619Z,1.80
2022-11-20T03:00:50.915Z,1.87
2022-11-20T03:02:53.058Z,1.90
2022-11-20T03:04:55.339Z,2.00
2022-11-20T03:06:57.341Z,2.00
2022-11-20T03:08:59.821Z,2.10
2022-11-20T03:11:09.414Z,2.00
2022-11-20T03:13:11.529Z,2.07
2022-11-20T03:15:13.613Z,2.20
2022-11-20T03:17:18.560Z,2.33
2022-11-20T03:19:21.022Z,2.33
2022-11-20T03:21:23.399Z,2.13
2022-11-20T03:23:30.145Z,2.37
2022-11-20T03:25:32.600Z,2.80
2022-11-20T03:27:38.147Z,1.90
2022-11-20T03:29:40.390Z,2.40
2022-11-20T03:31:44.538Z,1.93
2022-11-20T03:33:46.573Z,1.97
2022-11-20T03:35:48.498Z,1.70
2022-11-20T03:37:50.613Z,2.40
2022-11-20T03:39:52.698Z,1.80
2022-11-20T03:41:54.823Z,2.20
2022-11-20T03:44:02.779Z,2.70
2022-11-20T03:46:05.330Z,2.23
2022-11-20T03:48:07.430Z,2.70
2022-11-20T03:50:13.557Z,2.30
2022-11-20T03:52:15.864Z,1.67
2022-11-20T03:54:19.196Z,1.70
2022-11-20T03:56:25.582Z,1.40
2022-11-20T03:58:27.504Z,1.10
2022-11-20T04:00:29.867Z,1.13
2022-11-20T04:02:32.410Z,1.07
2022-11-20T04:04:34.394Z,1.40
2022-11-20T04:06:39.091Z,1.10
2022-11-20T04:08:42.302Z,1.70
2022-11-20T04:10:44.475Z,1.40
2022-11-20T04:12:46.687Z,1.27
2022-11-20T04:14:48.660Z,0.83
2022-11-20T04:16:50.956Z,1.00
2022-11-20T04:18:54.404Z,1.13
2022-11-20T04:20:58.560Z,1.20
2022-11-20T04:23:00.714Z,0.80
2022-11-20T04:25:02.826Z,1.27
2022-11-20T04:27:05.081Z,1.47
2022-11-20T04:29:07.411Z,0.90
2022-11-20T04:31:18.218Z,1.17
2022-11-20T04:33:20.498Z,1.50
2022-11-20T04:35:22.652Z,1.00
2022-11-20T04:37:27.636Z,1.10
2022-11-20T04:39:32.821Z,1.20
2022-11-20T04:41:37.131Z,0.90
2022-11-20T04:43:40.267Z,1.30
2022-11-20T04:45:42.299Z,1.07
2022-11-20T04:47:44.525Z,1.47
2022-11-20T04:49:46.797Z,1.40
2022-11-20T04:51:49.286Z,1.63
2022-11-20T04:53:51.459Z,3.53
2022-11-20T04:56:01.349Z,3.47
2022-11-20T04:58:03.602Z,3.47
2022-11-20T05:00:06.237Z,5.13
2022-11-20T05:02:08.530Z,8.83
2022-11-20T05:04:15.012Z,8.90
2022-11-20T05:06:19.641Z,9.07
2022-11-20T05:08:21.693Z,8.10
2022-11-20T05:10:23.726Z,7.83
2022-11-20T05:12:28.866Z,9.00
2022-11-20T05:14:31.396Z,8.43
2022-11-20T05:16:37.041Z,8.33
2022-11-20T05:18:39.942Z,8.97
2022-11-20T05:20:41.994Z,8.60
2022-11-20T05:22:44.199Z,7.87
2022-11-20T05:24:46.605Z,8.30
2022-11-20T05:26:48.900Z,9.20
2022-11-20T05:28:52.372Z,7.10
2022-11-20T05:30:54.523Z,7.47
2022-11-20T05:32:56.507Z,8.10
2022-11-20T05:34:58.666Z,6.97
2022-11-20T05:37:01.054Z,7.43
2022-11-20T05:39:03.757Z,7.03
2022-11-20T05:41:10.824Z,7.20
2022-11-20T05:43:15.945Z,6.93
2022-11-20T05:45:17.908Z,6.40
2022-11-20T05:47:20.381Z,6.17
2022-11-20T05:49:22.716Z,6.53
2022-11-20T05:51:25.480Z,6.57
2022-11-20T05:53:27.929Z,6.17
2022-11-20T05:55:29.905Z,6.10
2022-11-20T05:57:32.955Z,6.00
2022-11-20T05:59:35.298Z,5.73
2022-11-20T06:01:37.500Z,5.67
2022-11-20T06:03:40.865Z,6.40
2022-11-20T06:05:44.684Z,5.77
2022-11-20T06:07:46.845Z,5.73
2022-11-20T06:09:48.925Z,5.37
2022-11-20T06:11:51.425Z,5.70
2022-11-20T06:13:53.428Z,7.03
2022-11-20T06:15:55.628Z,5.70
2022-11-20T06:17:57.796Z,6.30
2022-11-20T06:20:00.023Z,5.30
2022-11-20T06:22:02.276Z,5.23
2022-11-20T06:24:04.944Z,5.00
2022-11-20T06:26:16.048Z,7.30
2022-11-20T06:28:18.320Z,5.63
2022-11-20T06:30:20.430Z,4.17
2022-11-20T06:32:22.611Z,4.80
2022-11-20T06:34:24.714Z,4.43
2022-11-20T06:36:26.821Z,4.13
2022-11-20T06:38:29.583Z,4.73
2022-11-20T06:40:31.844Z,3.90
2022-11-20T06:42:34.106Z,4.03
2022-11-20T06:44:36.139Z,4.03
2022-11-20T06:46:38.317Z,3.63
2022-11-20T06:48:41.127Z,3.80
2022-11-20T06:51:03.994Z,4.17
2022-11-20T06:53:06.498Z,3.80
2022-11-20T06:55:09.083Z,3.60
2022-11-20T06:57:11.507Z,4.30
2022-11-20T06:59:13.807Z,3.60
2022-11-20T07:01:16.730Z,3.67
2022-11-20T07:03:18.872Z,3.70
2022-11-20T07:05:21.479Z,4.50
2022-11-20T07:07:23.546Z,4.20
2022-11-20T07:09:25.907Z,4.47
2022-11-20T07:11:28.239Z,4.50
2022-11-20T07:13:31.221Z,5.40
2022-11-20T07:15:33.245Z,5.40
2022-11-20T07:17:35.277Z,5.33
2022-11-20T07:19:37.262Z,5.70
2022-11-20T07:21:39.361Z,5.30
2022-11-20T07:23:43.888Z,5.90
2022-11-20T07:25:48.357Z,5.67
2022-11-20T07:27:50.599Z,5.90
2022-11-20T07:29:52.649Z,5.57
2022-11-20T07:31:56.822Z,17.30
2022-11-20T07:33:58.948Z,26.00
2022-11-20T07:36:01.782Z,44.63
2022-11-20T07:38:03.834Z,57.27
2022-11-20T07:40:08.905Z,41.83
2022-11-20T07:42:13.538Z,27.57
2022-11-20T07:44:15.659Z,18.03
2022-11-20T07:46:17.879Z,15.10
2022-11-20T07:48:20.364Z,31.37
2022-11-20T07:50:22.375Z,42.27
2022-11-20T07:52:24.527Z,42.10
2022-11-20T07:54:26.860Z,46.17
2022-11-20T07:56:29.045Z,36.33
2022-11-20T07:58:33.941Z,23.70
2022-11-20T08:00:36.092Z,21.57
2022-11-20T08:02:42.278Z,16.20
2022-11-20T08:04:47.067Z,13.23
2022-11-20T08:06:53.604Z,13.87
2022-11-20T08:08:55.463Z,13.27
2022-11-20T08:11:20.360Z,11.03
2022-11-20T08:13:41.634Z,11.60
2022-11-20T08:15:50.051Z,8.97
2022-11-20T08:18:08.609Z,9.83
2022-11-20T08:20:14.438Z,8.97
2022-11-20T08:22:17.133Z,11.93
2022-11-20T08:24:19.288Z,10.20
2022-11-20T08:26:23.236Z,8.83
2022-11-20T08:28:25.331Z,9.30
2022-11-20T08:30:28.294Z,10.00
2022-11-20T08:32:30.462Z,9.60
2022-11-20T08:34:32.743Z,13.67
2022-11-20T08:36:36.340Z,12.83
2022-11-20T08:38:38.282Z,15.93
2022-11-20T08:40:40.338Z,17.30
2022-11-20T08:42:49.922Z,30.73
2022-11-20T08:44:52.223Z,30.23
2022-11-20T08:46:54.506Z,40.93
2022-11-20T08:48:56.622Z,36.33
2022-11-20T08:51:00.577Z,27.33
2022-11-20T08:53:06.442Z,27.97
2022-11-20T08:55:10.067Z,23.63
2022-11-20T08:57:12.344Z,18.23
2022-11-20T08:59:43.861Z,11.50
2022-11-20T09:01:36.612Z,8.97
2022-11-20T09:03:38.923Z,9.13
2022-11-20T09:05:41.112Z,10.63
2022-11-20T09:07:43.455Z,12.23
2022-11-20T09:09:46.390Z,9.00
2022-11-20T09:11:48.958Z,10.77
2022-11-20T09:13:51.228Z,8.63
2022-11-20T09:15:57.909Z,8.83
2022-11-20T09:18:02.735Z,8.60
2022-11-20T09:20:05.277Z,7.87
2022-11-20T09:22:07.333Z,8.73
2022-11-20T09:24:09.670Z,9.53
2022-11-20T09:26:15.499Z,9.90
2022-11-20T09:28:19.622Z,9.30
2022-11-20T09:30:22.217Z,11.67
2022-11-20T09:32:24.181Z,10.93
2022-11-20T09:34:26.309Z,23.43
2022-11-20T09:36:28.345Z,35.47
2022-11-20T09:38:32.790Z,33.13
2022-11-20T09:40:36.988Z,28.33
2022-11-20T09:42:48.920Z,25.20
2022-11-20T09:45:20.198Z,23.67
2022-11-20T09:47:46.696Z,31.63
2022-11-20T09:50:07.099Z,27.20
2022-11-20T09:52:35.397Z,20.13
2022-11-20T09:54:40.985Z,16.00
2022-11-20T09:56:48.011Z,13.33
2022-11-20T09:58:55.641Z,19.10
2022-11-20T10:01:10.041Z,33.50
2022-11-20T10:03:22.873Z,28.47
2022-11-20T10:05:39.060Z,39.20
2022-11-20T10:07:59.242Z,37.03
2022-11-20T10:10:04.431Z,31.53
2022-11-20T10:12:11.710Z,24.37
2022-11-20T10:14:19.721Z,19.67
2022-11-20T10:16:40.620Z,16.23
2022-11-20T10:19:10.317Z,14.30
2022-11-20T10:21:40.373Z,14.33
2022-11-20T10:23:51.390Z,11.87
2022-11-20T10:26:00.272Z,10.17
2022-11-20T10:28:26.031Z,10.27
2022-11-20T10:34:28.325Z,20.63
2022-11-20T10:36:44.715Z,15.50
2022-11-20T10:38:55.632Z,12.67
2022-11-20T10:41:22.368Z,14.00
2022-11-20T10:43:34.859Z,14.43
2022-11-20T10:45:50.650Z,11.60
2022-11-20T10:47:56.164Z,12.70
2022-11-20T10:50:05.294Z,19.60
2022-11-20T10:52:07.621Z,31.80
2022-11-20T10:54:43.999Z,30.17
2022-11-20T10:56:52.727Z,22.33
2022-11-20T10:59:03.742Z,16.27
2022-11-20T11:01:18.533Z,25.80
2022-11-20T11:03:24.267Z,18.50
2022-11-20T11:05:44.372Z,25.57
2022-11-20T11:07:47.644Z,28.57
2022-11-20T11:10:01.575Z,22.07
2022-11-20T11:12:08.605Z,14.23
2022-11-20T11:17:48.493Z,18.13
2022-11-20T11:20:08.295Z,19.60
2022-11-20T11:22:19.110Z,17.60
2022-11-20T11:27:10.201Z,14.83
2022-11-20T11:29:19.202Z,8.87
2022-11-20T11:31:34.826Z,7.00
2022-11-20T11:33:37.348Z,7.13
2022-11-20T11:36:17.860Z,9.67
2022-11-20T11:38:31.089Z,9.67
2022-11-20T11:40:35.793Z,12.20
2022-11-20T11:42:50.466Z,11.50
2022-11-20T11:45:08.673Z,12.07
2022-11-20T11:47:38.867Z,10.83
2022-11-20T11:49:41.520Z,10.00
2022-11-20T11:52:05.019Z,10.13
2022-11-20T11:54:18.984Z,21.90
2022-11-20T11:56:22.247Z,17.10
2022-11-20T11:58:51.438Z,14.27
2022-11-20T12:01:22.971Z,11.30
2022-11-20T12:03:38.625Z,21.80
2022-11-20T12:05:46.172Z,19.37
2022-11-20T12:07:58.701Z,26.93
2022-11-20T12:10:03.229Z,22.13
2022-11-20T12:12:26.303Z,15.20
2022-11-20T12:14:42.274Z,12.00
2022-11-20T12:16:44.577Z,9.60
2022-11-20T12:18:54.027Z,9.57
2022-11-20T12:21:11.034Z,11.50
2022-11-20T12:23:57.576Z,11.87
2022-11-20T12:26:09.148Z,10.73
2022-11-20T12:28:34.913Z,12.00
2022-11-20T12:30:50.576Z,12.20
2022-11-20T12:33:14.778Z,11.27
2022-11-20T12:35:35.208Z,12.47
2022-11-20T12:38:01.286Z,14.53
2022-11-20T12:40:16.049Z,15.70
2022-11-20T12:42:51.506Z,17.07
2022-11-20T12:45:20.335Z,17.40
2022-11-20T12:47:32.438Z,16.50
2022-11-20T12:50:09.849Z,17.47
2022-11-20T12:52:30.552Z,16.50
2022-11-20T12:54:38.549Z,16.43
2022-11-20T12:57:05.679Z,15.87
2022-11-20T12:59:41.750Z,16.27
2022-11-20T13:01:54.098Z,15.80
2022-11-20T13:04:10.527Z,16.20
2022-11-20T13:06:19.492Z,17.50
2022-11-20T13:08:25.953Z,15.43
2022-11-20T13:10:43.109Z,16.40
2022-11-20T13:12:51.530Z,14.87
2022-11-20T13:15:10.218Z,15.10
2022-11-20T13:17:34.713Z,15.27
2022-11-20T13:19:37.092Z,17.20
2022-11-20T13:21:41.996Z,18.47
2022-11-20T13:23:44.548Z,32.60
2022-11-20T13:25:48.070Z,22.53
2022-11-20T13:27:51.041Z,24.90
2022-11-20T13:30:18.496Z,26.43
2022-11-20T13:32:22.817Z,27.40
2022-11-20T13:34:31.516Z,27.00
2022-11-20T13:36:38.961Z,22.20
2022-11-20T13:38:49.992Z,31.47
2022-11-20T13:40:55.875Z,27.30
2022-11-20T13:43:36.346Z,31.70
2022-11-20T13:45:38.320Z,19.40
2022-11-20T13:47:49.980Z,19.93
2022-11-20T13:50:18.232Z,21.40
2022-11-20T13:52:41.751Z,22.80
2022-11-20T13:55:21.165Z,22.30
2022-11-20T13:57:26.430Z,20.80
2022-11-20T13:59:34.876Z,18.07
2022-11-20T14:01:38.685Z,16.13
2022-11-20T14:04:05.152Z,13.13
2022-11-20T14:06:21.197Z,12.47
2022-11-20T14:08:43.506Z,12.80
2022-11-20T14:10:45.480Z,10.57
2022-11-20T14:12:48.880Z,11.67
2022-11-20T14:14:53.930Z,9.40
2022-11-20T14:17:23.343Z,11.27
2022-11-20T14:19:29.213Z,10.67
2022-11-20T14:21:31.325Z,8.87
2022-11-20T14:23:33.446Z,12.40
2022-11-20T14:25:35.766Z,20.07
2022-11-20T14:27:43.571Z,22.50
2022-11-20T14:29:47.769Z,23.83
2022-11-20T14:31:54.348Z,26.73
2022-11-20T14:33:57.312Z,12.30
2022-11-20T14:35:59.803Z,9.90
2022-11-20T14:38:03.693Z,7.70
2022-11-20T14:40:32.329Z,7.03
2022-11-20T14:42:35.218Z,7.53
2022-11-20T14:44:38.888Z,9.57
2022-11-20T14:47:07.190Z,10.73
2022-11-20T14:49:11.641Z,12.53
2022-11-20T14:51:28.483Z,11.37
2022-11-20T14:53:30.400Z,9.60
2022-11-20T14:56:01.363Z,10.20
2022-11-20T14:58:22.126Z,10.97
2022-11-20T15:00:25.362Z,13.10
2022-11-20T15:02:27.575Z,14.97
2022-11-20T15:04:30.015Z,13.50
2022-11-20T15:06:35.129Z,14.73
2022-11-20T15:08:37.750Z,11.80
2022-11-20T15:10:50.595Z,10.57
2022-11-20T15:13:12.428Z,10.37
2022-11-20T15:15:21.832Z,9.77
2022-11-20T15:17:25.108Z,10.20
2022-11-20T15:19:28.153Z,10.40
2022-11-20T15:21:30.633Z,11.37
2022-11-20T15:23:32.871Z,12.10
2022-11-20T15:25:35.290Z,11.03
2022-11-20T15:27:37.236Z,10.30
2022-11-20T15:29:39.308Z,8.83
2022-11-20T15:31:44.355Z,11.67
2022-11-20T15:33:47.149Z,13.23
2022-11-20T15:35:49.543Z,12.17
2022-11-20T15:37:51.524Z,14.17
2022-11-20T15:39:53.605Z,13.50
2022-11-20T15:41:55.790Z,14.93
2022-11-20T15:43:57.932Z,13.40
2022-11-20T15:46:06.395Z,15.00
2022-11-20T15:48:19.142Z,12.50
2022-11-20T15:50:30.316Z,13.97
2022-11-20T15:52:41.505Z,13.53
2022-11-20T15:54:44.293Z,16.87
2022-11-20T15:56:47.829Z,21.93
2022-11-20T15:58:49.903Z,22.80
2022-11-20T16:00:54.549Z,22.27
2022-11-20T16:02:56.989Z,22.73
2022-11-20T16:05:01.262Z,24.13
2022-11-20T16:07:03.348Z,21.33
2022-11-20T16:09:05.973Z,18.93
2022-11-20T16:11:07.981Z,20.73
2022-11-20T16:13:37.509Z,18.27
2022-11-20T16:15:49.136Z,18.20
2022-11-20T16:17:51.235Z,18.47
2022-11-20T16:19:53.171Z,18.70
2022-11-20T16:22:01.160Z,19.13
2022-11-20T16:24:06.786Z,16.20
2022-11-20T16:26:17.888Z,17.10
2022-11-20T16:28:20.741Z,15.37
2022-11-20T16:30:23.707Z,14.03
2022-11-20T16:32:26.035Z,13.23
2022-11-20T16:34:30.354Z,12.93
2022-11-20T16:36:32.702Z,12.67
2022-11-20T16:38:34.649Z,10.73
2022-11-20T16:40:36.575Z,12.10
2022-11-20T16:42:38.808Z,15.30
2022-11-20T16:48:28.297Z,15.87
2022-11-20T16:50:30.710Z,15.43
2022-11-20T16:52:35.642Z,13.00
2022-11-20T16:54:37.819Z,13.07
2022-11-20T16:56:40.185Z,14.73
2022-11-20T16:58:42.484Z,18.00
2022-11-20T17:00:51.252Z,21.20
2022-11-20T17:02:54.379Z,23.47
2022-11-20T17:04:56.790Z,22.00
2022-11-20T17:07:01.495Z,16.63
2022-11-20T17:09:11.462Z,14.33
2022-11-20T17:11:16.855Z,12.83
2022-11-20T17:13:18.938Z,17.17
2022-11-20T17:15:23.905Z,21.53
2022-11-20T17:17:26.330Z,39.63
2022-11-20T17:19:28.748Z,49.97
2022-11-20T17:21:32.663Z,60.97
2022-11-20T17:23:37.327Z,62.33
2022-11-20T17:25:39.302Z,57.80
2022-11-20T17:27:41.594Z,45.10
2022-11-20T17:29:43.644Z,38.43
2022-11-20T17:31:46.595Z,33.60
2022-11-20T17:33:48.804Z,28.90
2022-11-20T17:35:50.942Z,29.93
2022-11-20T17:37:53.061Z,26.53
2022-11-20T17:39:55.195Z,25.83
2022-11-20T17:42:15.797Z,35.77
2022-11-20T17:44:17.813Z,33.80
2022-11-20T17:46:22.453Z,27.87
2022-11-20T17:48:25.250Z,26.37
2022-11-20T17:50:27.364Z,22.03
2022-11-20T17:52:29.344Z,18.40
2022-11-20T17:54:31.359Z,15.83
2022-11-20T17:56:53.173Z,16.87
2022-11-20T17:58:55.696Z,14.07
2022-11-20T18:01:05.447Z,13.43
2022-11-20T18:03:08.040Z,13.30
2022-11-20T18:05:10.681Z,13.00
2022-11-20T18:07:12.812Z,11.13
2022-11-20T18:09:15.359Z,10.87
2022-11-20T18:11:23.519Z,13.03
2022-11-20T18:13:47.860Z,12.83
2022-11-20T18:15:50.005Z,13.30
2022-11-20T18:17:52.457Z,15.80
2022-11-20T18:20:21.672Z,16.40
2022-11-20T18:22:19.263Z,19.53
2022-11-20T18:24:22.180Z,18.83
2022-11-20T18:26:25.600Z,19.80
2022-11-20T18:28:28.001Z,19.40
2022-11-20T18:30:30.246Z,18.40
2022-11-20T18:32:32.358Z,19.33
2022-11-20T18:34:34.325Z,17.27
2022-11-20T18:36:36.808Z,17.40
2022-11-20T18:38:44.952Z,18.40
2022-11-20T18:40:47.780Z,22.07
2022-11-20T18:43:08.277Z,22.33
2022-11-20T18:45:10.391Z,35.23
2022-11-20T18:47:16.835Z,35.13
2022-11-20T18:49:46.626Z,33.73
2022-11-20T18:51:48.929Z,35.80
2022-11-20T18:53:51.046Z,33.57
2022-11-20T18:55:53.027Z,28.90
2022-11-20T18:57:55.566Z,29.50
2022-11-20T19:00:07.862Z,31.73
2022-11-20T19:02:13.782Z,31.53
2022-11-20T19:04:17.793Z,34.23
2022-11-20T19:06:20.468Z,33.27
2022-11-20T19:08:22.772Z,34.73
2022-11-20T19:10:27.152Z,38.33
2022-11-20T19:12:29.488Z,33.97
2022-11-20T19:14:31.505Z,31.50
2022-11-20T19:16:33.657Z,30.03
2022-11-20T19:18:35.805Z,33.90
2022-11-20T19:20:42.138Z,29.97
2022-11-20T19:22:44.625Z,30.27
2022-11-20T19:24:47.032Z,31.40
2022-11-20T19:26:49.296Z,32.37
2022-11-20T19:28:53.190Z,29.20
2022-11-20T19:30:55.375Z,29.70
2022-11-20T19:32:58.180Z,28.23
2022-11-20T19:35:00.347Z,27.30
2022-11-20T19:37:03.263Z,25.10
2022-11-20T19:39:07.730Z,26.80
2022-11-20T19:41:11.015Z,27.90
2022-11-20T19:43:13.408Z,30.27
2022-11-20T19:45:15.683Z,32.83
2022-11-20T19:47:17.931Z,36.97
2022-11-20T19:49:19.792Z,33.77
2022-11-20T19:51:25.126Z,27.70
2022-11-20T19:53:27.581Z,21.53
2022-11-20T19:55:29.686Z,22.97
2022-11-20T19:57:32.205Z,23.23
2022-11-20T19:59:34.287Z,21.53
2022-11-20T20:01:36.800Z,22.30
2022-11-20T20:03:39.560Z,24.03
2022-11-20T20:05:41.774Z,25.80
2022-11-20T20:07:43.885Z,29.43
2022-11-20T20:09:45.937Z,36.43
2022-11-20T20:11:48.361Z,53.30
2022-11-20T20:13:50.639Z,37.17
2022-11-20T20:15:53.168Z,35.40
2022-11-20T20:17:55.543Z,28.07
2022-11-20T20:19:58.125Z,25.83
2022-11-20T20:22:02.032Z,27.27
2022-11-20T20:24:04.867Z,32.40
2022-11-20T20:26:08.627Z,35.23
2022-11-20T20:28:11.027Z,36.10
2022-11-20T20:30:13.253Z,31.13
2022-11-20T20:32:15.303Z,29.30
2022-11-20T20:34:17.758Z,26.20
2022-11-20T20:36:21.496Z,23.57
2022-11-20T20:38:23.771Z,22.50
2022-11-20T20:40:26.308Z,25.70
2022-11-20T20:42:31.197Z,23.17
2022-11-20T20:44:51.757Z,23.87
2022-11-20T20:46:53.653Z,19.70
2022-11-20T20:48:55.615Z,19.10
2022-11-20T20:51:01.090Z,23.40
2022-11-20T20:53:02.804Z,24.60
2022-11-20T20:55:05.093Z,22.47
2022-11-20T20:57:06.979Z,21.53
2022-11-20T20:59:08.781Z,20.07
2022-11-20T21:01:13.784Z,20.07
2022-11-20T21:03:15.833Z,23.03
2022-11-20T21:05:18.256Z,24.70
2022-11-20T21:07:20.288Z,23.13
2022-11-20T21:09:22.858Z,25.60
2022-11-20T21:11:25.511Z,30.23
2022-11-20T21:13:28.367Z,26.43
2022-11-20T21:15:30.546Z,32.10
2022-11-20T21:17:32.806Z,29.87
2022-11-20T21:19:35.072Z,26.33
2022-11-20T21:21:56.919Z,25.47
2022-11-20T21:24:02.448Z,31.00
2022-11-20T21:26:07.891Z,27.50
2022-11-20T21:28:14.239Z,25.97
2022-11-20T21:30:19.054Z,23.70
2022-11-20T21:32:21.311Z,23.97
2022-11-20T21:34:24.545Z,23.23
2022-11-20T21:36:29.571Z,21.80
2022-11-20T21:38:32.001Z,21.67
2022-11-20T21:40:34.186Z,32.13
2022-11-20T21:42:37.660Z,25.43
2022-11-20T21:44:40.306Z,22.47
2022-11-20T21:46:46.655Z,23.80
2022-11-20T21:48:49.113Z,20.37
2022-11-20T21:50:50.857Z,20.53
2022-11-20T21:52:52.994Z,17.40
2022-11-20T21:54:54.849Z,17.27
2022-11-20T21:56:56.944Z,19.37
2022-11-20T21:58:59.045Z,18.80
2022-11-20T22:01:08.370Z,14.73
2022-11-20T22:03:10.424Z,18.87
2022-11-20T22:05:12.875Z,17.47
2022-11-20T22:07:14.958Z,15.73
2022-11-20T22:09:17.428Z,14.63
2022-11-20T22:11:22.012Z,14.83
2022-11-20T22:13:44.077Z,14.97
2022-11-20T22:16:00.348Z,13.80
2022-11-20T22:18:18.119Z,15.10
2022-11-20T22:20:20.199Z,15.73
2022-11-20T22:22:22.318Z,15.83
2022-11-20T22:24:25.415Z,15.53
2022-11-20T22:26:33.924Z,13.20
2022-11-20T22:28:40.497Z,11.73
2022-11-20T22:30:42.743Z,10.73
2022-11-20T22:32:44.714Z,10.40
2022-11-20T22:34:47.934Z,9.83
2022-11-20T22:36:49.861Z,8.93
2022-11-20T22:38:52.164Z,10.87
2022-11-20T22:40:54.143Z,9.90
2022-11-20T22:42:56.342Z,15.13
2022-11-20T22:44:58.915Z,14.93
2022-11-20T22:47:07.451Z,11.63
2022-11-20T22:49:12.610Z,10.73
2022-11-20T22:51:17.065Z,9.77
2022-11-20T22:53:19.339Z,14.70
2022-11-20T22:55:21.361Z,15.03
2022-11-20T22:57:25.863Z,16.17
2022-11-20T22:59:28.979Z,17.67
2022-11-20T23:01:34.468Z,20.27
2022-11-20T23:03:37.411Z,20.67
2022-11-20T23:05:39.334Z,17.93
2022-11-20T23:07:41.613Z,14.23
2022-11-20T23:13:44.648Z,10.40
2022-11-20T23:15:46.599Z,10.67
2022-11-20T23:17:48.976Z,10.97
2022-11-20T23:19:52.031Z,10.67
2022-11-20T23:21:54.282Z,10.83
2022-11-20T23:23:58.271Z,10.87
2022-11-20T23:26:02.319Z,15.00
2022-11-20T23:28:04.621Z,22.23
2022-11-20T23:30:07.582Z,23.13
2022-11-20T23:32:09.751Z,40.47
2022-11-20T23:34:11.794Z,38.03
2022-11-20T23:36:14.907Z,32.83
2022-11-20T23:38:17.251Z,45.60
2022-11-20T23:40:20.009Z,52.77
2022-11-20T23:42:22.111Z,45.40
2022-11-20T23:44:25.803Z,23.50
2022-11-20T23:46:28.104Z,15.87
2022-11-20T23:48:32.519Z,14.87
2022-11-20T23:50:37.967Z,14.73
2022-11-20T23:52:40.264Z,14.97
2022-11-20T23:54:42.475Z,18.20
2022-11-20T23:56:44.714Z,16.80
2022-11-20T23:58:47.143Z,18.60
